sensor_id;sensor_type;location;lat;lon;timestamp;P1;durP1;ratioP1;P2;durP2;ratioP2
52618;SDS011;38513;53.234;6.568;2022-11-20T00:02:00;21.60;;;15.70;;
52618;SDS011;38513;53.234;6.568;2022-11-20T00:04:26;21.67;;;15.20;;
52618;SDS011;38513;53.234;6.568;2022-11-20T00:06:52;22.17;;;14.90;;
52618;SDS011;38513;53.234;6.568;2022-11-20T00:09:21;21.65;;;15.88;;
52618;SDS011;38513;53.234;6.568;2022-11-20T00:11:47;21.10;;;15.30;;
52618;SDS011;38513;53.234;6.568;2022-11-20T00:14:16;21.17;;;15.70;;
52618;SDS011;38513;53.234;6.568;2022-11-20T00:16:42;20.48;;;15.18;;
52618;SDS011;38513;53.234;6.568;2022-11-20T00:19:09;22.08;;;15.40;;
52618;SDS011;38513;53.234;6.568;2022-11-20T00:21:35;21.27;;;14.73;;
52618;SDS011;38513;53.234;6.568;2022-11-20T00:24:01;22.10;;;15.82;;
52618;SDS011;38513;53.234;6.568;2022-11-20T00:26:28;23.40;;;15.77;;
52618;SDS011;38513;53.234;6.568;2022-11-20T00:28:56;21.15;;;15.82;;
52618;SDS011;38513;53.234;6.568;2022-11-20T00:31:22;22.48;;;15.00;;
52618;SDS011;38513;53.234;6.568;2022-11-20T00:33:52;20.03;;;15.03;;
52618;SDS011;38513;53.234;6.568;2022-11-20T00:36:19;20.73;;;14.50;;
52618;SDS011;38513;53.234;6.568;2022-11-20T00:38:45;18.97;;;13.67;;
52618;SDS011;38513;53.234;6.568;2022-11-20T00:41:13;20.52;;;14.00;;
52618;SDS011;38513;53.234;6.568;2022-11-20T00:43:39;20.75;;;13.93;;
52618;SDS011;38513;53.234;6.568;2022-11-20T00:46:08;18.27;;;13.80;;
52618;SDS011;38513;53.234;6.568;2022-11-20T00:48:34;19.52;;;14.02;;
52618;SDS011;38513;53.234;6.568;2022-11-20T00:51:00;21.05;;;14.20;;
52618;SDS011;38513;53.234;6.568;2022-11-20T00:53:27;18.83;;;13.20;;
52618;SDS011;38513;53.234;6.568;2022-11-20T00:56:00;20.25;;;13.55;;
52618;SDS011;38513;53.234;6.568;2022-11-20T00:58:30;18.30;;;13.45;;
52618;SDS011;38513;53.234;6.568;2022-11-20T01:01:00;18.83;;;12.95;;
52618;SDS011;38513;53.234;6.568;2022-11-20T01:03:27;18.55;;;13.23;;
52618;SDS011;38513;53.234;6.568;2022-11-20T01:05:53;20.27;;;13.82;;
52618;SDS011;38513;53.234;6.568;2022-11-20T01:08:19;19.15;;;13.20;;
52618;SDS011;38513;53.234;6.568;2022-11-20T01:10:45;18.87;;;13.53;;
52618;SDS011;38513;53.234;6.568;2022-11-20T01:13:11;19.85;;;13.63;;
52618;SDS011;38513;53.234;6.568;2022-11-20T01:16:18;18.58;;;13.02;;
52618;SDS011;38513;53.234;6.568;2022-11-20T01:18:46;19.08;;;13.40;;
52618;SDS011;38513;53.234;6.568;2022-11-20T01:21:13;19.40;;;13.73;;
52618;SDS011;38513;53.234;6.568;2022-11-20T01:23:40;19.92;;;13.80;;
52618;SDS011;38513;53.234;6.568;2022-11-20T01:26:07;19.85;;;13.35;;
52618;SDS011;38513;53.234;6.568;2022-11-20T01:28:33;18.90;;;13.05;;
52618;SDS011;38513;53.234;6.568;2022-11-20T01:31:00;20.60;;;13.43;;
52618;SDS011;38513;53.234;6.568;2022-11-20T01:33:27;19.15;;;13.90;;
52618;SDS011;38513;53.234;6.568;2022-11-20T01:35:53;18.38;;;13.13;;
52618;SDS011;38513;53.234;6.568;2022-11-20T01:38:19;19.88;;;13.77;;
52618;SDS011;38513;53.234;6.568;2022-11-20T01:40:53;18.63;;;13.80;;
52618;SDS011;38513;53.234;6.568;2022-11-20T01:43:24;20.80;;;14.00;;
52618;SDS011;38513;53.234;6.568;2022-11-20T01:51:19;21.70;;;15.55;;
52618;SDS011;38513;53.234;6.568;2022-11-20T01:53:47;21.20;;;14.82;;
52618;SDS011;38513;53.234;6.568;2022-11-20T01:56:14;19.48;;;14.35;;
52618;SDS011;38513;53.234;6.568;2022-11-20T01:58:42;21.02;;;15.10;;
52618;SDS011;38513;53.234;6.568;2022-11-20T02:01:10;20.73;;;14.65;;
52618;SDS011;38513;53.234;6.568;2022-11-20T02:03:36;20.35;;;15.32;;
52618;SDS011;38513;53.234;6.568;2022-11-20T02:08:32;21.00;;;15.68;;
52618;SDS011;38513;53.234;6.568;2022-11-20T02:10:58;21.05;;;14.90;;
52618;SDS011;38513;53.234;6.568;2022-11-20T02:13:24;20.70;;;15.43;;
52618;SDS011;38513;53.234;6.568;2022-11-20T02:16:10;21.20;;;15.03;;
52618;SDS011;38513;53.234;6.568;2022-11-20T02:18:37;22.02;;;15.70;;
52618;SDS011;38513;53.234;6.568;2022-11-20T02:21:06;20.02;;;15.15;;
52618;SDS011;38513;53.234;6.568;2022-11-20T02:23:36;22.73;;;16.23;;
52618;SDS011;38513;53.234;6.568;2022-11-20T02:26:05;20.53;;;15.53;;
52618;SDS011;38513;53.234;6.568;2022-11-20T02:28:32;23.00;;;16.60;;
52618;SDS011;38513;53.234;6.568;2022-11-20T02:30:58;22.77;;;16.77;;
52618;SDS011;38513;53.234;6.568;2022-11-20T02:33:24;22.27;;;16.00;;
52618;SDS011;38513;53.234;6.568;2022-11-20T02:35:50;22.00;;;16.25;;
52618;SDS011;38513;53.234;6.568;2022-11-20T02:38:19;20.50;;;15.77;;
52618;SDS011;38513;53.234;6.568;2022-11-20T02:40:45;21.55;;;16.50;;
52618;SDS011;38513;53.234;6.568;2022-11-20T02:43:12;21.13;;;15.77;;
52618;SDS011;38513;53.234;6.568;2022-11-20T02:45:38;21.00;;;14.55;;
52618;SDS011;38513;53.234;6.568;2022-11-20T02:48:05;20.13;;;14.55;;
52618;SDS011;38513;53.234;6.568;2022-11-20T02:50:32;20.10;;;14.25;;
52618;SDS011;38513;53.234;6.568;2022-11-20T02:52:58;21.07;;;15.67;;
52618;SDS011;38513;53.234;6.568;2022-11-20T02:55:24;19.35;;;14.55;;
52618;SDS011;38513;53.234;6.568;2022-11-20T02:57:51;19.60;;;14.40;;
52618;SDS011;38513;53.234;6.568;2022-11-20T03:00:19;20.23;;;14.57;;
52618;SDS011;38513;53.234;6.568;2022-11-20T03:02:46;21.10;;;15.03;;
52618;SDS011;38513;53.234;6.568;2022-11-20T03:05:12;19.48;;;14.48;;
52618;SDS011;38513;53.234;6.568;2022-11-20T03:07:38;19.27;;;14.07;;
52618;SDS011;38513;53.234;6.568;2022-11-20T03:10:04;19.90;;;14.00;;
52618;SDS011;38513;53.234;6.568;2022-11-20T03:12:31;19.65;;;14.50;;
52618;SDS011;38513;53.234;6.568;2022-11-20T03:14:57;20.30;;;14.75;;
52618;SDS011;38513;53.234;6.568;2022-11-20T03:17:23;22.17;;;15.25;;
52618;SDS011;38513;53.234;6.568;2022-11-20T03:19:49;20.13;;;14.80;;
52618;SDS011;38513;53.234;6.568;2022-11-20T03:22:15;19.88;;;14.45;;
52618;SDS011;38513;53.234;6.568;2022-11-20T03:24:41;20.13;;;14.52;;
52618;SDS011;38513;53.234;6.568;2022-11-20T03:27:07;17.70;;;13.38;;
52618;SDS011;38513;53.234;6.568;2022-11-20T03:29:37;18.48;;;12.85;;
52618;SDS011;38513;53.234;6.568;2022-11-20T03:32:03;19.10;;;13.57;;
52618;SDS011;38513;53.234;6.568;2022-11-20T03:34:29;19.90;;;14.30;;
52618;SDS011;38513;53.234;6.568;2022-11-20T03:36:55;19.52;;;14.07;;
52618;SDS011;38513;53.234;6.568;2022-11-20T03:39:21;19.17;;;13.83;;
52618;SDS011;38513;53.234;6.568;2022-11-20T03:41:47;19.60;;;13.98;;
52618;SDS011;38513;53.234;6.568;2022-11-20T03:44:13;19.25;;;13.98;;
52618;SDS011;38513;53.234;6.568;2022-11-20T03:46:39;17.67;;;13.65;;
52618;SDS011;38513;53.234;6.568;2022-11-20T03:49:06;17.50;;;12.70;;
52618;SDS011;38513;53.234;6.568;2022-11-20T03:51:33;18.27;;;13.15;;
52618;SDS011;38513;53.234;6.568;2022-11-20T03:54:00;18.27;;;13.25;;
52618;SDS011;38513;53.234;6.568;2022-11-20T03:56:27;17.33;;;12.65;;
52618;SDS011;38513;53.234;6.568;2022-11-20T03:58:53;18.25;;;13.10;;
52618;SDS011;38513;53.234;6.568;2022-11-20T04:01:21;18.17;;;13.40;;
52618;SDS011;38513;53.234;6.568;2022-11-20T04:03:47;17.67;;;12.63;;
52618;SDS011;38513;53.234;6.568;2022-11-20T04:06:15;17.60;;;12.80;;
52618;SDS011;38513;53.234;6.568;2022-11-20T04:08:42;19.58;;;13.10;;
52618;SDS011;38513;53.234;6.568;2022-11-20T04:11:18;17.08;;;12.32;;
52618;SDS011;38513;53.234;6.568;2022-11-20T04:13:49;18.63;;;13.37;;
52618;SDS011;38513;53.234;6.568;2022-11-20T04:16:16;18.55;;;13.52;;
52618;SDS011;38513;53.234;6.568;2022-11-20T04:18:42;18.55;;;13.82;;
52618;SDS011;38513;53.234;6.568;2022-11-20T04:21:09;18.92;;;13.88;;
52618;SDS011;38513;53.234;6.568;2022-11-20T04:23:35;20.02;;;13.75;;
52618;SDS011;38513;53.234;6.568;2022-11-20T04:26:11;18.60;;;13.00;;
52618;SDS011;38513;53.234;6.568;2022-11-20T04:28:37;18.40;;;13.60;;
52618;SDS011;38513;53.234;6.568;2022-11-20T04:31:04;18.38;;;13.40;;
52618;SDS011;38513;53.234;6.568;2022-11-20T04:33:31;19.08;;;13.45;;
52618;SDS011;38513;53.234;6.568;2022-11-20T04:36:00;18.13;;;13.60;;
52618;SDS011;38513;53.234;6.568;2022-11-20T04:38:26;20.25;;;14.38;;
52618;SDS011;38513;53.234;6.568;2022-11-20T04:40:55;18.55;;;13.77;;
52618;SDS011;38513;53.234;6.568;2022-11-20T04:43:22;19.52;;;14.10;;
52618;SDS011;38513;53.234;6.568;2022-11-20T04:45:51;18.55;;;13.80;;
52618;SDS011;38513;53.234;6.568;2022-11-20T04:48:18;19.70;;;14.30;;
52618;SDS011;38513;53.234;6.568;2022-11-20T04:50:44;19.48;;;14.10;;
52618;SDS011;38513;53.234;6.568;2022-11-20T04:53:10;18.95;;;13.93;;
52618;SDS011;38513;53.234;6.568;2022-11-20T04:55:36;19.48;;;14.13;;
52618;SDS011;38513;53.234;6.568;2022-11-20T04:58:02;18.90;;;13.20;;
52618;SDS011;38513;53.234;6.568;2022-11-20T05:00:28;18.42;;;13.73;;
52618;SDS011;38513;53.234;6.568;2022-11-20T05:02:54;17.55;;;12.85;;
52618;SDS011;38513;53.234;6.568;2022-11-20T05:05:23;17.95;;;12.63;;
52618;SDS011;38513;53.234;6.568;2022-11-20T05:07:49;16.42;;;11.88;;
52618;SDS011;38513;53.234;6.568;2022-11-20T05:10:15;17.02;;;12.52;;
52618;SDS011;38513;53.234;6.568;2022-11-20T05:12:41;16.60;;;12.23;;
52618;SDS011;38513;53.234;6.568;2022-11-20T05:15:07;18.92;;;13.85;;
52618;SDS011;38513;53.234;6.568;2022-11-20T05:17:34;19.90;;;14.43;;
52618;SDS011;38513;53.234;6.568;2022-11-20T05:20:00;19.48;;;14.38;;
52618;SDS011;38513;53.234;6.568;2022-11-20T05:22:26;19.23;;;13.95;;
52618;SDS011;38513;53.234;6.568;2022-11-20T05:24:52;18.77;;;13.57;;
52618;SDS011;38513;53.234;6.568;2022-11-20T05:27:18;17.93;;;13.10;;
52618;SDS011;38513;53.234;6.568;2022-11-20T05:29:44;19.08;;;13.70;;
52618;SDS011;38513;53.234;6.568;2022-11-20T05:32:10;18.95;;;13.25;;
52618;SDS011;38513;53.234;6.568;2022-11-20T05:34:36;17.80;;;13.05;;
52618;SDS011;38513;53.234;6.568;2022-11-20T05:37:02;18.23;;;13.40;;
52618;SDS011;38513;53.234;6.568;2022-11-20T05:39:29;17.70;;;13.23;;
52618;SDS011;38513;53.234;6.568;2022-11-20T05:41:55;17.50;;;13.10;;
52618;SDS011;38513;53.234;6.568;2022-11-20T05:44:39;17.73;;;13.45;;
52618;SDS011;38513;53.234;6.568;2022-11-20T05:47:05;18.17;;;13.00;;
52618;SDS011;38513;53.234;6.568;2022-11-20T05:49:32;18.55;;;13.10;;
52618;SDS011;38513;53.234;6.568;2022-11-20T05:51:58;17.20;;;12.95;;
52618;SDS011;38513;53.234;6.568;2022-11-20T05:54:24;19.33;;;13.57;;
52618;SDS011;38513;53.234;6.568;2022-11-20T05:56:50;17.15;;;12.75;;
52618;SDS011;38513;53.234;6.568;2022-11-20T05:59:16;16.67;;;12.60;;
52618;SDS011;38513;53.234;6.568;2022-11-20T06:01:42;17.83;;;12.63;;
52618;SDS011;38513;53.234;6.568;2022-11-20T06:04:08;18.13;;;12.98;;
52618;SDS011;38513;53.234;6.568;2022-11-20T06:06:34;18.42;;;12.68;;
52618;SDS011;38513;53.234;6.568;2022-11-20T06:09:00;17.53;;;12.60;;
52618;SDS011;38513;53.234;6.568;2022-11-20T06:11:29;17.35;;;12.27;;
52618;SDS011;38513;53.234;6.568;2022-11-20T06:13:56;15.43;;;11.27;;
52618;SDS011;38513;53.234;6.568;2022-11-20T06:16:24;17.92;;;12.68;;
52618;SDS011;38513;53.234;6.568;2022-11-20T06:18:51;16.90;;;12.10;;
52618;SDS011;38513;53.234;6.568;2022-11-20T06:21:18;16.70;;;11.98;;
52618;SDS011;38513;53.234;6.568;2022-11-20T06:23:45;15.88;;;11.60;;
52618;SDS011;38513;53.234;6.568;2022-11-20T06:26:12;17.13;;;11.55;;
52618;SDS011;38513;53.234;6.568;2022-11-20T06:28:38;16.38;;;12.27;;
52618;SDS011;38513;53.234;6.568;2022-11-20T06:31:05;14.98;;;11.70;;
52618;SDS011;38513;53.234;6.568;2022-11-20T06:33:31;17.38;;;12.00;;
52618;SDS011;38513;53.234;6.568;2022-11-20T06:35:58;16.42;;;11.75;;
52618;SDS011;38513;53.234;6.568;2022-11-20T06:38:25;18.13;;;12.80;;
52618;SDS011;38513;53.234;6.568;2022-11-20T06:40:51;16.53;;;12.17;;
52618;SDS011;38513;53.234;6.568;2022-11-20T06:43:18;16.43;;;11.93;;
52618;SDS011;38513;53.234;6.568;2022-11-20T06:45:44;17.13;;;12.15;;
52618;SDS011;38513;53.234;6.568;2022-11-20T06:48:10;16.35;;;11.57;;
52618;SDS011;38513;53.234;6.568;2022-11-20T06:50:36;16.65;;;12.38;;
52618;SDS011;38513;53.234;6.568;2022-11-20T06:53:04;17.80;;;12.48;;
52618;SDS011;38513;53.234;6.568;2022-11-20T06:55:30;18.23;;;12.60;;
52618;SDS011;38513;53.234;6.568;2022-11-20T06:57:57;16.58;;;12.82;;
52618;SDS011;38513;53.234;6.568;2022-11-20T07:00:25;17.25;;;12.73;;
52618;SDS011;38513;53.234;6.568;2022-11-20T07:02:51;17.08;;;12.60;;
52618;SDS011;38513;53.234;6.568;2022-11-20T07:05:17;16.65;;;12.20;;
52618;SDS011;38513;53.234;6.568;2022-11-20T07:07:44;18.58;;;13.00;;
52618;SDS011;38513;53.234;6.568;2022-11-20T07:10:10;17.65;;;12.07;;
52618;SDS011;38513;53.234;6.568;2022-11-20T07:12:36;17.45;;;12.45;;
52618;SDS011;38513;53.234;6.568;2022-11-20T07:15:02;16.53;;;12.53;;
52618;SDS011;38513;53.234;6.568;2022-11-20T07:17:28;16.77;;;12.43;;
52618;SDS011;38513;53.234;6.568;2022-11-20T07:19:54;17.02;;;12.30;;
52618;SDS011;38513;53.234;6.568;2022-11-20T07:22:21;16.27;;;12.57;;
52618;SDS011;38513;53.234;6.568;2022-11-20T07:24:47;17.80;;;12.50;;
52618;SDS011;38513;53.234;6.568;2022-11-20T07:27:13;18.45;;;12.40;;
52618;SDS011;38513;53.234;6.568;2022-11-20T07:29:39;16.73;;;12.60;;
52618;SDS011;38513;53.234;6.568;2022-11-20T07:32:05;17.20;;;12.40;;
52618;SDS011;38513;53.234;6.568;2022-11-20T07:34:31;16.45;;;12.30;;
52618;SDS011;38513;53.234;6.568;2022-11-20T07:37:01;18.20;;;12.82;;
52618;SDS011;38513;53.234;6.568;2022-11-20T07:39:27;16.52;;;12.23;;
52618;SDS011;38513;53.234;6.568;2022-11-20T07:41:55;17.08;;;12.60;;
52618;SDS011;38513;53.234;6.568;2022-11-20T07:44:21;18.05;;;12.88;;
52618;SDS011;38513;53.234;6.568;2022-11-20T07:46:47;18.23;;;13.27;;
52618;SDS011;38513;53.234;6.568;2022-11-20T07:49:14;17.55;;;13.02;;
52618;SDS011;38513;53.234;6.568;2022-11-20T07:51:40;16.85;;;12.77;;
52618;SDS011;38513;53.234;6.568;2022-11-20T07:54:06;17.33;;;12.70;;
52618;SDS011;38513;53.234;6.568;2022-11-20T07:56:32;17.38;;;12.75;;
52618;SDS011;38513;53.234;6.568;2022-11-20T07:58:58;17.13;;;12.93;;
52618;SDS011;38513;53.234;6.568;2022-11-20T08:01:24;17.63;;;12.52;;
52618;SDS011;38513;53.234;6.568;2022-11-20T08:03:50;16.13;;;12.27;;
52618;SDS011;38513;53.234;6.568;2022-11-20T08:06:16;16.17;;;11.90;;
52618;SDS011;38513;53.234;6.568;2022-11-20T08:08:44;15.98;;;12.07;;
52618;SDS011;38513;53.234;6.568;2022-11-20T08:11:12;19.40;;;12.57;;
52618;SDS011;38513;53.234;6.568;2022-11-20T08:13:57;16.58;;;11.80;;
52618;SDS011;38513;53.234;6.568;2022-11-20T08:16:48;17.92;;;12.32;;
52618;SDS011;38513;53.234;6.568;2022-11-20T08:19:18;17.85;;;12.57;;
52618;SDS011;38513;53.234;6.568;2022-11-20T08:21:48;17.02;;;12.23;;
52618;SDS011;38513;53.234;6.568;2022-11-20T08:24:14;16.15;;;11.88;;
52618;SDS011;38513;53.234;6.568;2022-11-20T08:26:40;16.92;;;12.13;;
52618;SDS011;38513;53.234;6.568;2022-11-20T08:29:07;17.25;;;12.55;;
52618;SDS011;38513;53.234;6.568;2022-11-20T08:31:33;17.30;;;12.43;;
52618;SDS011;38513;53.234;6.568;2022-11-20T08:33:59;16.67;;;12.07;;
52618;SDS011;38513;53.234;6.568;2022-11-20T08:36:25;16.25;;;11.57;;
52618;SDS011;38513;53.234;6.568;2022-11-20T08:38:52;16.70;;;12.00;;
52618;SDS011;38513;53.234;6.568;2022-11-20T08:41:19;15.20;;;11.57;;
52618;SDS011;38513;53.234;6.568;2022-11-20T08:43:48;17.17;;;12.27;;
52618;SDS011;38513;53.234;6.568;2022-11-20T08:46:15;16.88;;;12.57;;
52618;SDS011;38513;53.234;6.568;2022-11-20T08:48:41;16.58;;;12.40;;
52618;SDS011;38513;53.234;6.568;2022-11-20T08:51:07;16.20;;;11.90;;
52618;SDS011;38513;53.234;6.568;2022-11-20T08:53:33;16.02;;;12.43;;
52618;SDS011;38513;53.234;6.568;2022-11-20T08:55:59;15.75;;;12.15;;
52618;SDS011;38513;53.234;6.568;2022-11-20T08:58:25;16.90;;;12.23;;
52618;SDS011;38513;53.234;6.568;2022-11-20T09:00:52;18.08;;;12.88;;
52618;SDS011;38513;53.234;6.568;2022-11-20T09:03:18;18.60;;;13.30;;
52618;SDS011;38513;53.234;6.568;2022-11-20T09:05:44;16.50;;;12.70;;
52618;SDS011;38513;53.234;6.568;2022-11-20T09:08:11;17.58;;;12.43;;
52618;SDS011;38513;53.234;6.568;2022-11-20T09:10:37;17.90;;;12.77;;
52618;SDS011;38513;53.234;6.568;2022-11-20T09:13:06;15.50;;;12.50;;
52618;SDS011;38513;53.234;6.568;2022-11-20T09:15:32;17.20;;;12.38;;
52618;SDS011;38513;53.234;6.568;2022-11-20T09:18:02;17.20;;;12.77;;
52618;SDS011;38513;53.234;6.568;2022-11-20T09:20:30;18.25;;;13.32;;
52618;SDS011;38513;53.234;6.568;2022-11-20T09:22:56;17.13;;;12.85;;
52618;SDS011;38513;53.234;6.568;2022-11-20T09:25:23;19.55;;;12.57;;
52618;SDS011;38513;53.234;6.568;2022-11-20T09:27:55;18.03;;;13.03;;
52618;SDS011;38513;53.234;6.568;2022-11-20T09:30:22;18.75;;;13.00;;
52618;SDS011;38513;53.234;6.568;2022-11-20T09:32:48;18.52;;;13.10;;
52618;SDS011;38513;53.234;6.568;2022-11-20T09:35:14;17.60;;;12.80;;
52618;SDS011;38513;53.234;6.568;2022-11-20T09:37:40;17.58;;;12.52;;
52618;SDS011;38513;53.234;6.568;2022-11-20T09:40:08;16.88;;;13.00;;
52618;SDS011;38513;53.234;6.568;2022-11-20T09:45:18;17.55;;;12.82;;
52618;SDS011;38513;53.234;6.568;2022-11-20T09:55:27;16.63;;;12.85;;
52618;SDS011;38513;53.234;6.568;2022-11-20T09:57:58;17.80;;;13.35;;
52618;SDS011;38513;53.234;6.568;2022-11-20T10:00:25;17.48;;;13.25;;
52618;SDS011;38513;53.234;6.568;2022-11-20T10:05:28;18.33;;;12.52;;
52618;SDS011;38513;53.234;6.568;2022-11-20T10:10:33;16.10;;;12.05;;
52618;SDS011;38513;53.234;6.568;2022-11-20T10:18:02;16.83;;;12.15;;
52618;SDS011;38513;53.234;6.568;2022-11-20T10:25:47;15.70;;;11.82;;
52618;SDS011;38513;53.234;6.568;2022-11-20T10:31:08;16.05;;;11.52;;
52618;SDS011;38513;53.234;6.568;2022-11-20T10:33:36;15.25;;;11.60;;
52618;SDS011;38513;53.234;6.568;2022-11-20T10:36:14;14.75;;;10.80;;
52618;SDS011;38513;53.234;6.568;2022-11-20T10:38:43;16.25;;;11.80;;
52618;SDS011;38513;53.234;6.568;2022-11-20T10:41:14;14.93;;;10.82;;
52618;SDS011;38513;53.234;6.568;2022-11-20T10:43:52;14.23;;;10.63;;
52618;SDS011;38513;53.234;6.568;2022-11-20T10:46:20;14.80;;;10.70;;
52618;SDS011;38513;53.234;6.568;2022-11-20T10:48:47;14.93;;;11.15;;
52618;SDS011;38513;53.234;6.568;2022-11-20T10:54:33;13.55;;;10.35;;
52618;SDS011;38513;53.234;6.568;2022-11-20T10:56:53;14.17;;;10.80;;
52618;SDS011;38513;53.234;6.568;2022-11-20T11:01:45;14.60;;;10.93;;
52618;SDS011;38513;53.234;6.568;2022-11-20T11:04:18;14.63;;;10.43;;
52618;SDS011;38513;53.234;6.568;2022-11-20T11:06:49;13.60;;;9.70;;
52618;SDS011;38513;53.234;6.568;2022-11-20T11:09:19;13.95;;;10.48;;
52618;SDS011;38513;53.234;6.568;2022-11-20T11:11:48;14.13;;;10.07;;
52618;SDS011;38513;53.234;6.568;2022-11-20T11:14:15;13.02;;;9.70;;
52618;SDS011;38513;53.234;6.568;2022-11-20T11:16:51;13.13;;;9.85;;
52618;SDS011;38513;53.234;6.568;2022-11-20T11:19:17;14.00;;;10.27;;
52618;SDS011;38513;53.234;6.568;2022-11-20T11:21:46;13.40;;;10.18;;
52618;SDS011;38513;53.234;6.568;2022-11-20T11:24:19;13.45;;;10.13;;
52618;SDS011;38513;53.234;6.568;2022-11-20T11:26:59;15.02;;;10.55;;
52618;SDS011;38513;53.234;6.568;2022-11-20T11:29:32;13.10;;;9.38;;
52618;SDS011;38513;53.234;6.568;2022-11-20T11:32:12;13.77;;;10.10;;
52618;SDS011;38513;53.234;6.568;2022-11-20T11:34:38;13.40;;;9.68;;
52618;SDS011;38513;53.234;6.568;2022-11-20T11:37:05;13.40;;;10.27;;
52618;SDS011;38513;53.234;6.568;2022-11-20T11:39:36;13.35;;;10.20;;
52618;SDS011;38513;53.234;6.568;2022-11-20T11:42:04;13.20;;;9.93;;
52618;SDS011;38513;53.234;6.568;2022-11-20T11:44:31;13.55;;;10.10;;
52618;SDS011;38513;53.234;6.568;2022-11-20T11:47:21;14.70;;;10.27;;
52618;SDS011;38513;53.234;6.568;2022-11-20T11:49:48;15.25;;;10.10;;
52618;SDS011;38513;53.234;6.568;2022-11-20T11:52:15;15.47;;;10.03;;
52618;SDS011;38513;53.234;6.568;2022-11-20T11:54:49;13.95;;;9.20;;
52618;SDS011;38513;53.234;6.568;2022-11-20T12:00:30;16.35;;;10.63;;
52618;SDS011;38513;53.234;6.568;2022-11-20T12:07:46;12.23;;;8.40;;
52618;SDS011;38513;53.234;6.568;2022-11-20T12:10:18;12.48;;;8.68;;
52618;SDS011;38513;53.234;6.568;2022-11-20T12:12:48;12.65;;;8.65;;
52618;SDS011;38513;53.234;6.568;2022-11-20T12:15:19;12.20;;;8.67;;
52618;SDS011;38513;53.234;6.568;2022-11-20T12:17:48;12.38;;;8.45;;
52618;SDS011;38513;53.234;6.568;2022-11-20T12:20:14;11.25;;;7.57;;
52618;SDS011;38513;53.234;6.568;2022-11-20T12:25:24;11.70;;;8.00;;
52618;SDS011;38513;53.234;6.568;2022-11-20T12:30:17;12.32;;;8.30;;
52618;SDS011;38513;53.234;6.568;2022-11-20T12:32:48;10.88;;;6.90;;
52618;SDS011;38513;53.234;6.568;2022-11-20T12:42:50;9.98;;;5.53;;
52618;SDS011;38513;53.234;6.568;2022-11-20T12:53:33;9.38;;;5.32;;
52618;SDS011;38513;53.234;6.568;2022-11-20T12:56:06;7.95;;;5.30;;
52618;SDS011;38513;53.234;6.568;2022-11-20T13:01:19;8.25;;;5.20;;
52618;SDS011;38513;53.234;6.568;2022-11-20T13:04:13;7.85;;;4.90;;
52618;SDS011;38513;53.234;6.568;2022-11-20T13:06:43;8.85;;;5.25;;
52618;SDS011;38513;53.234;6.568;2022-11-20T13:09:10;9.80;;;5.80;;
52618;SDS011;38513;53.234;6.568;2022-11-20T13:11:50;8.20;;;5.38;;
52618;SDS011;38513;53.234;6.568;2022-11-20T13:14:24;8.23;;;5.45;;
52618;SDS011;38513;53.234;6.568;2022-11-20T13:17:00;9.20;;;5.85;;
52618;SDS011;38513;53.234;6.568;2022-11-20T13:19:31;9.03;;;5.50;;
52618;SDS011;38513;53.234;6.568;2022-11-20T13:21:57;9.75;;;5.80;;
52618;SDS011;38513;53.234;6.568;2022-11-20T13:24:24;8.63;;;5.50;;
52618;SDS011;38513;53.234;6.568;2022-11-20T13:29:34;10.70;;;6.30;;
52618;SDS011;38513;53.234;6.568;2022-11-20T13:34:30;10.05;;;6.57;;
52618;SDS011;38513;53.234;6.568;2022-11-20T13:36:56;9.90;;;6.22;;
52618;SDS011;38513;53.234;6.568;2022-11-20T13:39:26;9.88;;;6.53;;
52618;SDS011;38513;53.234;6.568;2022-11-20T13:41:54;10.25;;;6.53;;
52618;SDS011;38513;53.234;6.568;2022-11-20T13:44:25;10.00;;;6.43;;
52618;SDS011;38513;53.234;6.568;2022-11-20T13:46:52;9.98;;;6.60;;
52618;SDS011;38513;53.234;6.568;2022-11-20T13:57:42;10.15;;;6.68;;
52618;SDS011;38513;53.234;6.568;2022-11-20T14:02:37;10.18;;;6.68;;
52618;SDS011;38513;53.234;6.568;2022-11-20T14:05:04;10.88;;;7.18;;
52618;SDS011;38513;53.234;6.568;2022-11-20T14:07:38;11.20;;;7.50;;
52618;SDS011;38513;53.234;6.568;2022-11-20T14:10:05;11.27;;;7.28;;
52618;SDS011;38513;53.234;6.568;2022-11-20T14:12:32;11.55;;;7.55;;
52618;SDS011;38513;53.234;6.568;2022-11-20T14:15:02;10.77;;;7.07;;
52618;SDS011;38513;53.234;6.568;2022-11-20T14:19:54;13.30;;;9.20;;
52618;SDS011;38513;53.234;6.568;2022-11-20T14:22:26;9.93;;;7.20;;
52618;SDS011;38513;53.234;6.568;2022-11-20T14:27:38;11.45;;;7.80;;
52618;SDS011;38513;53.234;6.568;2022-11-20T14:30:05;10.68;;;7.03;;
52618;SDS011;38513;53.234;6.568;2022-11-20T14:32:32;11.13;;;7.43;;
52618;SDS011;38513;53.234;6.568;2022-11-20T14:35:03;12.02;;;7.90;;
52618;SDS011;38513;53.234;6.568;2022-11-20T14:37:35;11.00;;;7.72;;
52618;SDS011;38513;53.234;6.568;2022-11-20T14:40:02;12.73;;;7.93;;
52618;SDS011;38513;53.234;6.568;2022-11-20T14:42:29;12.25;;;7.43;;
52618;SDS011;38513;53.234;6.568;2022-11-20T14:44:56;11.23;;;7.70;;
52618;SDS011;38513;53.234;6.568;2022-11-20T14:47:23;11.07;;;7.90;;
52618;SDS011;38513;53.234;6.568;2022-11-20T14:49:51;11.88;;;7.57;;
52618;SDS011;38513;53.234;6.568;2022-11-20T14:52:19;12.52;;;7.85;;
52618;SDS011;38513;53.234;6.568;2022-11-20T14:54:46;13.57;;;8.32;;
52618;SDS011;38513;53.234;6.568;2022-11-20T14:57:23;12.15;;;7.90;;
52618;SDS011;38513;53.234;6.568;2022-11-20T14:59:50;12.32;;;7.47;;
52618;SDS011;38513;53.234;6.568;2022-11-20T15:02:17;11.30;;;7.50;;
52618;SDS011;38513;53.234;6.568;2022-11-20T15:04:50;11.07;;;7.72;;
52618;SDS011;38513;53.234;6.568;2022-11-20T15:07:27;11.48;;;7.40;;
52618;SDS011;38513;53.234;6.568;2022-11-20T15:10:07;11.95;;;7.97;;
52618;SDS011;38513;53.234;6.568;2022-11-20T15:12:35;11.30;;;7.95;;
52618;SDS011;38513;53.234;6.568;2022-11-20T15:15:02;12.27;;;8.25;;
52618;SDS011;38513;53.234;6.568;2022-11-20T15:17:30;11.65;;;8.00;;
52618;SDS011;38513;53.234;6.568;2022-11-20T15:19:57;11.80;;;8.07;;
52618;SDS011;38513;53.234;6.568;2022-11-20T15:22:24;12.65;;;8.80;;
52618;SDS011;38513;53.234;6.568;2022-11-20T15:24:50;12.50;;;9.13;;
52618;SDS011;38513;53.234;6.568;2022-11-20T15:27:16;13.57;;;9.38;;
52618;SDS011;38513;53.234;6.568;2022-11-20T15:29:42;14.80;;;10.20;;
52618;SDS011;38513;53.234;6.568;2022-11-20T15:32:08;14.52;;;9.75;;
52618;SDS011;38513;53.234;6.568;2022-11-20T15:34:34;13.70;;;9.48;;
52618;SDS011;38513;53.234;6.568;2022-11-20T15:37:01;14.70;;;9.60;;
52618;SDS011;38513;53.234;6.568;2022-11-20T15:39:27;14.45;;;9.88;;
52618;SDS011;38513;53.234;6.568;2022-11-20T15:41:53;14.48;;;9.85;;
52618;SDS011;38513;53.234;6.568;2022-11-20T15:44:19;15.23;;;10.27;;
52618;SDS011;38513;53.234;6.568;2022-11-20T15:46:48;16.00;;;11.03;;
52618;SDS011;38513;53.234;6.568;2022-11-20T15:49:15;15.85;;;11.27;;
52618;SDS011;38513;53.234;6.568;2022-11-20T15:51:44;16.65;;;11.20;;
52618;SDS011;38513;53.234;6.568;2022-11-20T15:54:18;15.57;;;10.90;;
52618;SDS011;38513;53.234;6.568;2022-11-20T15:56:46;15.70;;;11.10;;
52618;SDS011;38513;53.234;6.568;2022-11-20T15:59:12;14.40;;;10.47;;
52618;SDS011;38513;53.234;6.568;2022-11-20T16:01:40;16.02;;;10.88;;
52618;SDS011;38513;53.234;6.568;2022-11-20T16:04:12;15.18;;;11.07;;
52618;SDS011;38513;53.234;6.568;2022-11-20T16:06:38;15.65;;;11.25;;